createdAt,value
2023-04-06T00:00:56.439Z,1.30
2023-04-06T00:05:59.091Z,1.30
2023-04-06T00:11:03.104Z,1.10
2023-04-06T00:16:07.031Z,1.20
2023-04-06T00:21:09.705Z,1.10
2023-04-06T00:26:13.676Z,1.20
2023-04-06T00:31:16.656Z,1.40
2023-04-06T00:36:19.438Z,1.00
2023-04-06T00:41:23.491Z,0.80
2023-04-06T00:46:26.283Z,0.50
2023-04-06T00:51:29.294Z,0.30
2023-04-06T00:56:33.760Z,0.30
2023-04-06T01:01:36.500Z,0.60
2023-04-06T01:06:39.185Z,0.90
2023-04-06T01:11:43.157Z,1.10
2023-04-06T01:16:45.882Z,1.10
2023-04-06T01:21:50.254Z,0.80
2023-04-06T01:26:54.238Z,0.90
2023-04-06T01:31:56.932Z,0.70
2023-04-06T01:36:59.614Z,0.80
2023-04-06T01:42:03.697Z,0.70
2023-04-06T01:47:06.501Z,0.50
2023-04-06T01:52:09.241Z,0.60
2023-04-06T01:57:13.487Z,0.30
2023-04-06T02:02:16.413Z,0.20
2023-04-06T02:07:19.069Z,0.20
2023-04-06T02:12:23.314Z,-0.10
2023-04-06T02:17:26.301Z,-0.30
2023-04-06T02:22:29.081Z,-0.20
2023-04-06T02:27:33.127Z,0.00
2023-04-06T02:32:36.111Z,0.00
2023-04-06T02:37:38.842Z,-0.10
2023-04-06T02:42:42.870Z,0.00
2023-04-06T02:47:45.555Z,0.10
2023-04-06T02:52:48.291Z,0.20
2023-04-06T02:57:52.269Z,0.10
2023-04-06T03:02:55.004Z,0.10
2023-04-06T03:07:57.807Z,-0.10
2023-04-06T03:13:01.783Z,-0.10
2023-04-06T03:18:04.626Z,0.00
2023-04-06T03:23:07.337Z,-0.10
2023-04-06T03:28:11.347Z,-0.30
2023-04-06T03:33:14.109Z,-0.40
2023-04-06T03:38:16.858Z,-0.60
2023-04-06T03:43:20.888Z,-0.30
2023-04-06T03:48:23.574Z,-0.10
2023-04-06T03:53:26.239Z,-0.10
2023-04-06T03:58:30.241Z,-0.20
2023-04-06T04:03:33.079Z,-0.10
2023-04-06T04:08:36.418Z,-0.20
2023-04-06T04:13:40.404Z,-0.30
2023-04-06T04:18:44.528Z,-0.40
2023-04-06T04:23:47.343Z,-0.80
2023-04-06T04:28:51.366Z,-0.80
2023-04-06T04:33:54.032Z,-0.80
2023-04-06T04:38:56.901Z,-0.80
2023-04-06T04:44:00.936Z,-0.90
2023-04-06T04:49:03.608Z,-0.80
2023-04-06T04:54:06.540Z,-0.70
2023-04-06T04:59:10.802Z,-0.70
2023-04-06T05:04:13.601Z,-0.70
2023-04-06T05:09:16.286Z,-0.50
2023-04-06T05:14:21.056Z,-0.30
2023-04-06T05:19:23.781Z,-0.20
2023-04-06T05:24:26.513Z,-0.10
2023-04-06T05:29:30.928Z,0.10
2023-04-06T05:34:33.661Z,0.10
2023-04-06T05:39:36.507Z,0.30
2023-04-06T05:44:40.477Z,0.40
2023-04-06T05:49:43.897Z,0.90
2023-04-06T05:54:46.666Z,1.20
2023-04-06T05:59:50.629Z,1.30
2023-04-06T06:04:53.305Z,1.40
2023-04-06T06:09:58.725Z,1.50
2023-04-06T06:15:02.792Z,1.70
2023-04-06T06:20:06.419Z,1.80
2023-04-06T06:25:09.780Z,2.10
2023-04-06T06:30:14.364Z,2.30
2023-04-06T06:35:17.322Z,2.50
2023-04-06T06:40:21.010Z,2.60
2023-04-06T06:45:26.410Z,2.80
2023-04-06T06:50:29.460Z,3.00
2023-04-06T06:55:32.098Z,3.40
2023-04-06T07:00:36.126Z,3.50
2023-04-06T07:05:41.333Z,3.80
2023-04-06T07:10:44.162Z,4.00
2023-04-06T07:15:48.181Z,4.20
2023-04-06T07:20:50.838Z,4.40
2023-04-06T07:25:54.834Z,4.60
2023-04-06T07:30:58.811Z,4.60
2023-04-06T07:36:01.835Z,4.60
2023-04-06T07:41:05.035Z,5.00
2023-04-06T07:46:09.210Z,5.20
2023-04-06T07:51:15.091Z,5.40
2023-04-06T07:56:17.874Z,5.90
2023-04-06T08:01:21.980Z,6.70
2023-04-06T08:06:24.836Z,10.60
2023-04-06T08:11:28.371Z,14.40
2023-04-06T08:16:32.371Z,16.70
2023-04-06T08:21:35.305Z,17.90
2023-04-06T08:26:37.962Z,18.90
2023-04-06T08:31:42.666Z,19.90
2023-04-06T08:36:46.638Z,21.30
2023-04-06T08:41:53.214Z,21.90
2023-04-06T08:46:58.050Z,23.50
2023-04-06T08:52:02.486Z,25.00
2023-04-06T08:57:06.911Z,24.40
2023-04-06T09:02:19.019Z,25.60
2023-04-06T09:07:22.588Z,28.30
2023-04-06T09:12:26.634Z,28.30
2023-04-06T09:17:34.380Z,26.50
2023-04-06T09:22:38.528Z,27.80
2023-04-06T09:27:41.238Z,30.80
2023-04-06T10:14:12.853Z,38.60
2023-04-06T10:19:20.441Z,37.70
2023-04-06T10:24:23.362Z,37.60
2023-04-06T10:29:27.451Z,37.50
2023-04-06T10:34:37.004Z,36.10
2023-04-06T10:39:48.180Z,38.10
2023-04-06T10:44:52.483Z,31.90
2023-04-06T10:49:55.154Z,27.90
2023-04-06T10:54:58.746Z,23.20
2023-04-06T11:00:02.767Z,19.70
2023-04-06T11:05:05.981Z,18.50
2023-04-06T11:10:16.541Z,19.00
2023-04-06T11:15:22.303Z,19.00
2023-04-06T11:20:25.072Z,24.50
2023-04-06T11:25:28.687Z,30.90
2023-04-06T11:30:32.775Z,31.90
2023-04-06T11:35:36.782Z,27.70
2023-04-06T11:40:39.536Z,26.10
2023-04-06T11:45:44.101Z,28.10
2023-04-06T11:50:48.642Z,27.50
2023-04-06T11:55:51.429Z,28.30
2023-04-06T12:00:55.459Z,29.50
2023-04-06T12:05:59.707Z,31.80
2023-04-06T12:11:03.468Z,33.50
2023-04-06T12:16:07.876Z,34.90
2023-04-06T12:21:10.872Z,32.50
2023-04-06T12:26:13.598Z,33.10
2023-04-06T12:31:22.430Z,33.60
2023-04-06T12:36:25.921Z,35.60
2023-04-06T12:41:29.625Z,38.20
2023-04-06T12:46:33.701Z,39.40
2023-04-06T12:51:36.537Z,38.70
2023-04-06T12:56:39.227Z,38.40
2023-04-06T13:01:43.201Z,38.30
2023-04-06T13:06:45.906Z,35.60
2023-04-06T13:11:48.662Z,30.40
2023-04-06T13:16:52.884Z,27.00
2023-04-06T13:21:55.749Z,22.10
2023-04-06T13:26:58.588Z,19.40
2023-04-06T13:32:02.793Z,18.20
2023-04-06T13:37:05.652Z,18.30
2023-04-06T13:42:08.619Z,18.60
2023-04-06T13:47:13.317Z,22.40
2023-04-06T13:52:16.373Z,28.80
2023-04-06T13:57:19.067Z,32.30
2023-04-06T14:02:28.232Z,34.60
2023-04-06T14:07:31.391Z,35.20
2023-04-06T14:12:34.065Z,30.90
2023-04-06T14:17:38.302Z,25.10
2023-04-06T14:22:42.044Z,23.30
2023-04-06T14:27:45.252Z,24.60
2023-04-06T14:32:49.353Z,22.00
2023-04-06T14:37:52.467Z,20.20
2023-04-06T14:42:56.704Z,23.30
2023-04-06T14:48:00.767Z,24.70
2023-04-06T14:53:03.439Z,25.60
2023-04-06T14:58:06.228Z,28.60
2023-04-06T15:03:10.533Z,29.50
2023-04-06T15:08:15.985Z,28.60
2023-04-06T15:13:18.953Z,27.80
2023-04-06T15:18:22.972Z,27.60
2023-04-06T15:23:25.991Z,28.60
2023-04-06T15:28:29.417Z,28.90
2023-04-06T15:33:33.596Z,27.80
2023-04-06T15:38:37.738Z,28.20
2023-04-06T15:43:40.675Z,27.90
2023-04-06T15:48:44.924Z,26.50
2023-04-06T15:53:47.778Z,24.40
2023-04-06T15:58:50.546Z,22.00
2023-04-06T16:03:54.872Z,19.40
2023-04-06T16:08:57.581Z,17.80
2023-04-06T16:14:00.956Z,16.90
2023-04-06T16:19:05.152Z,16.50
2023-04-06T16:24:08.567Z,15.80
2023-04-06T16:29:11.420Z,15.30
2023-04-06T16:34:15.551Z,14.70
2023-04-06T16:39:18.229Z,14.20
2023-04-06T16:44:21.596Z,14.00
2023-04-06T16:49:25.706Z,13.60
2023-04-06T16:54:28.455Z,13.20
2023-04-06T16:59:31.627Z,12.90
2023-04-06T17:04:37.537Z,12.80
2023-04-06T17:09:42.667Z,13.10
2023-04-06T17:14:45.529Z,13.10
2023-04-06T17:19:49.531Z,12.60
2023-04-06T17:24:52.229Z,11.90
2023-04-06T17:30:00.079Z,11.40
2023-04-06T17:35:04.420Z,11.10
2023-04-06T17:40:08.428Z,10.60
2023-04-06T17:45:13.766Z,10.20
2023-04-06T17:50:17.900Z,10.10
2023-04-06T17:55:22.400Z,9.90
2023-04-06T18:00:25.689Z,9.60
2023-04-06T18:05:32.759Z,9.20
2023-04-06T18:10:38.400Z,9.10
2023-04-06T18:15:41.205Z,8.90
2023-04-06T18:20:45.319Z,8.70
2023-04-06T18:25:48.060Z,8.50
2023-04-06T18:30:50.838Z,8.20
2023-04-06T18:35:56.512Z,8.20
2023-04-06T18:40:59.539Z,7.90
2023-04-06T18:46:02.242Z,7.70
2023-04-06T18:51:06.451Z,7.60
2023-04-06T18:56:16.438Z,7.40
2023-04-06T19:01:23.417Z,7.20
2023-04-06T19:06:28.121Z,7.20
2023-04-06T19:11:32.337Z,7.20
2023-04-06T19:16:40.794Z,7.50
2023-04-06T19:21:44.847Z,7.60
2023-04-06T19:26:47.622Z,7.30
2023-04-06T19:31:53.219Z,6.80
2023-04-06T19:36:57.308Z,6.50
2023-04-06T19:41:59.933Z,6.30
2023-04-06T19:47:05.014Z,6.20
2023-04-06T19:52:09.980Z,6.00
2023-04-06T19:57:12.681Z,6.00
2023-04-06T20:02:15.794Z,6.70
2023-04-06T20:07:19.898Z,6.70
2023-04-06T20:12:22.606Z,6.30
2023-04-06T20:17:25.677Z,6.20
2023-04-06T20:22:29.701Z,6.10
2023-04-06T20:27:32.506Z,5.90
2023-04-06T20:32:35.280Z,5.90
2023-04-06T20:37:39.376Z,5.70
2023-04-06T20:42:42.511Z,5.20
2023-04-06T20:47:45.978Z,4.70
2023-04-06T20:52:50.323Z,4.50
2023-04-06T20:57:53.038Z,4.70
2023-04-06T21:02:56.057Z,4.90
2023-04-06T21:08:00.315Z,4.80
2023-04-06T21:13:03.010Z,4.90
2023-04-06T21:18:06.072Z,4.80
2023-04-06T21:23:10.154Z,4.90
2023-04-06T21:28:12.821Z,4.90
2023-04-06T21:33:15.559Z,4.80
2023-04-06T21:38:19.667Z,4.70
2023-04-06T21:43:22.474Z,4.60
2023-04-06T21:48:25.217Z,4.40
2023-04-06T21:53:29.211Z,4.40
2023-04-06T21:58:31.852Z,4.40
2023-04-06T22:03:34.670Z,4.20
2023-04-06T22:08:39.089Z,4.10
2023-04-06T22:13:42.178Z,4.20
2023-04-06T22:18:44.836Z,4.10
2023-04-06T22:23:48.849Z,3.90
2023-04-06T22:53:52.270Z,3.50
2023-04-06T23:11:55.541Z,3.20
2023-04-06T23:17:53.214Z,3.20
2023-04-06T23:29:35.152Z,3.40
2023-04-06T23:47:22.606Z,2.80
